Mackinaw City, MI

12:47 PM EST on November 23, 2014 (GMT -0500)
Mackinac Island | Change Station
CLOSE
Current Station
Airport
Location: Mackinac Island,
Elevation: 741 ft
Nearby Weather Stations

Elev 741 ft 45.87 °N, 84.64 °W | Updated 11 minutes ago

Overcast
Overcast
45 °F
Feels Like 41 °F
N
6
Wind Variable Wind from SSE

Today
High -- | Low -- °F
--% Chance of Precip.
Yesterday
High -- | Low -- °F
Precip. -- in
7:49 AM 5:00 PM
New Moon, 2% visible
Pressure 29.65 in
Visibility 0.5 miles
Clouds Overcast 300 ft
Windchill 41 °F
Dew Point 45 °F
Humidity 100%
Rainfall 0.00 in
Snow Depth Not available.
UV 1 out of 12
Pollen .10 out of 12
Air Quality Not available.
Flu Activity Not available.
METAR KMCD 231736Z AUTO 15005KT 1/2SM FG OVC003 07/07 A2965 RMK AO2 T00700070

More Conditions Fewer Conditions

Pressure 29.65 in
Visibility 0.5 miles
Clouds Overcast 300 ft
Windchill 41 °F
Dew Point 45 °F
Humidity 100%
Rainfall 0.00 in
Snow Depth Not available.
UV 1 out of 12
Pollen .10 out of 12
Air Quality Not available.
Flu Activity Not available.
METAR KMCD 231736Z AUTO 15005KT 1/2SM FG OVC003 07/07 A2965 RMK AO2 T00700070

More Conditions Fewer Conditions

Nowcast | as of 12:00 PM EST on November 23, 2014

At 1 PM...cloudy. Patchy fog. Chance of rain. Temperature 46. South winds 11 mph. At 3 PM...cloudy. Patchy fog. Chance of rain. Temperature 46. South winds 10 mph. At 5 PM...patchy fog. Rain likely. Temperature 46. South winds 10 mph. At 7 PM...areas of fog. Rain. Temperature 45. Southeast winds 9 mph.

×

10-Day Weather Forecast

Almanac

Astronomy

Nov. 23, 2014 Rise Set
Actual Time
Civil Twilight
Nautical Twilight
Astronomical Twilight
Moon
Length of Visible Light
Length of Day
Tomorrow will be .
, % of the Moon is Illuminated

Today's Extremes

State Highs State Lows

Community

WunderPhotos

Upload Photos

1,773,116 photos uploaded!

WunderBlogs® & News

Nearby

Air Quality

  Air Quality AQ Index Pollutant
Not available.

Snow Depth

Station Depth Elevation

Earthquake Activity

City Distance Mag. Time & Date
Minimum magnitude displayed is 2.5.

Coastal Water Temperatures

Place Temperature

Nearby Weather Stations